Terminal Aerodrome Forecast
Issued by NWS

Home | Current Version | Previous Version | Text Only | Print | Product List | Glossary On
Versions: 1 2 3 4 5 6 7 8 9 10 11 12 13 14 15 16 17 18 19 20 21 22
594
FTUS43 KJKL 140407 AAA
TAFSME
TAF AMD
KSME 140407Z 1404/1424 00000KT 2SM BR VCSH OVC003
     FM141400 00000KT 4SM BR VCSH OVC003
     FM142100 28004KT 4SM -SHRA OVC003=

USA.gov is the U.S. government's official web portal to all federal, state and local government web resources and services.